Time;durP1;ratioP1;P1;durP2;ratioP2;P2;SDS_P1;SDS_P2;PMS_P1;PMS_P2;Temp;Humidity;BMP_temperature;BMP_pressure;BME280_temperature;BME280_humidity;BME280_pressure;Samples;Min_cycle;Max_cycle;Signal;HPM_P1;HPM_P2
2021/04/08 00:00:31;;;;;;;7.47;2.92;;;;;;;3.42;54.40;100997.50;5066775;28;20139;-82
2021/04/08 00:02:57;;;;;;;8.00;3.38;;;;;;;3.41;54.45;101008.84;5073110;28;20048;-83
2021/04/08 00:05:23;;;;;;;9.50;3.05;;;;;;;3.44;54.37;101002.72;5067923;28;20395;-81
2021/04/08 00:07:49;;;;;;;8.52;3.10;;;;;;;3.41;54.67;101011.47;5068520;28;20133;-83
2021/04/08 00:10:16;;;;;;;9.52;3.22;;;;;;;3.38;54.80;101000.16;5064372;28;20109;-82
2021/04/08 00:12:45;;;;;;;9.05;3.08;;;;;;;3.33;55.08;101009.78;5068737;28;20055;-82
2021/04/08 00:15:13;;;;;;;6.22;3.28;;;;;;;3.27;55.43;101010.72;5077114;28;20119;-83
2021/04/08 00:17:39;;;;;;;10.88;3.22;;;;;;;3.24;55.73;101013.34;5081953;28;20079;-84
2021/04/08 00:20:12;;;;;;;7.38;2.97;;;;;;;3.25;55.89;101011.59;5084198;28;20104;-82
2021/04/08 00:22:38;;;;;;;10.25;3.15;;;;;;;3.27;55.49;101010.72;5085903;28;20066;-82
2021/04/08 00:25:04;;;;;;;6.88;3.15;;;;;;;3.28;55.45;101014.22;5085005;28;20039;-83
2021/04/08 00:27:30;;;;;;;7.88;2.92;;;;;;;3.22;55.42;101015.09;5087163;28;20033;-84
2021/04/08 00:29:56;;;;;;;10.73;3.60;;;;;;;3.23;55.50;101010.75;5085959;28;20037;-83
2021/04/08 00:32:23;;;;;;;6.43;2.85;;;;;;;3.18;55.60;101005.53;5084624;28;20017;-83
2021/04/08 00:34:49;;;;;;;6.43;2.88;;;;;;;3.12;56.18;101011.69;5084869;28;20048;-83
2021/04/08 00:37:15;;;;;;;8.13;2.78;;;;;;;3.11;55.95;101014.31;5072558;28;20143;-83
2021/04/08 00:39:41;;;;;;;8.52;3.40;;;;;;;3.11;56.32;101022.16;5071093;28;20060;-82
2021/04/08 00:42:07;;;;;;;10.50;3.22;;;;;;;3.08;56.69;101016.94;5064781;28;20056;-82
2021/04/08 00:44:34;;;;;;;11.25;3.25;;;;;;;3.05;56.78;101009.97;5071412;28;20060;-82
2021/04/08 00:47:00;;;;;;;7.75;3.40;;;;;;;3.02;56.70;101033.53;5066518;28;20048;-83
2021/04/08 00:49:26;;;;;;;7.85;3.25;;;;;;;2.93;57.73;101025.75;5062701;28;20125;-83
2021/04/08 00:51:53;;;;;;;5.07;2.63;;;;;;;2.93;57.44;101020.53;5064430;28;20064;-82
2021/04/08 00:54:20;;;;;;;12.38;3.25;;;;;;;2.92;57.26;101026.63;5077077;28;20576;-83
2021/04/08 00:56:48;;;;;;;6.10;3.15;;;;;;;2.98;57.25;101034.47;5072991;28;20047;-83
2021/04/08 00:59:15;;;;;;;11.30;3.65;;;;;;;3.00;57.19;101035.28;5073967;28;20282;-82
2021/04/08 01:01:44;;;;;;;8.68;3.15;;;;;;;2.90;57.82;101037.97;5069547;28;20048;-83
2021/04/08 01:04:12;;;;;;;10.52;3.72;;;;;;;2.89;58.05;101039.72;5068684;28;20045;-83
2021/04/08 01:06:39;;;;;;;11.80;3.40;;;;;;;2.78;58.69;101042.41;5081207;28;20055;-82
2021/04/08 01:09:06;;;;;;;8.27;3.17;;;;;;;2.77;58.61;101038.06;5086167;28;20063;-83
2021/04/08 01:11:33;;;;;;;7.72;3.42;;;;;;;2.66;59.30;101045.09;5084153;28;20045;-84
2021/04/08 01:14:01;;;;;;;6.13;3.30;;;;;;;2.66;59.19;101047.72;5073943;28;20508;-82
2021/04/08 01:16:44;;;;;;;10.77;3.80;;;;;;;2.66;58.90;101049.44;5074861;28;20124;-80
2021/04/08 01:19:32;;;;;;;6.97;3.40;;;;;;;2.67;59.66;101056.41;5083240;28;20062;-84
2021/04/08 01:22:27;;;;;;;10.18;3.33;;;;;;;2.62;59.77;101058.19;5069220;28;20408;-84
2021/04/08 01:25:37;;;;;;;9.63;3.70;;;;;;;2.51;59.78;101057.34;5065506;28;20387;-85
2021/04/08 01:28:38;;;;;;;8.98;3.38;;;;;;;2.44;60.02;101062.59;5067915;28;20067;-82
2021/04/08 01:31:07;;;;;;;12.65;3.60;;;;;;;2.43;60.17;101068.69;5073959;28;20048;-83
2021/04/08 01:33:45;;;;;;;9.63;3.60;;;;;;;2.40;60.21;101067.81;5075605;28;20515;-82
2021/04/08 01:36:23;;;;;;;10.90;3.28;;;;;;;2.38;60.06;101065.22;5086572;28;20052;-85
2021/04/08 01:39:02;;;;;;;8.82;3.42;;;;;;;2.40;60.40;101063.47;5094641;28;20044;-84
2021/04/08 01:41:35;;;;;;;7.60;3.45;;;;;;;2.34;60.80;101065.25;5068364;28;20067;-85
2021/04/08 01:44:03;;;;;;;10.60;3.30;;;;;;;2.37;60.30;101068.69;5074793;28;20052;-84
2021/04/08 01:46:36;;;;;;;7.28;3.35;;;;;;;2.31;60.71;101066.13;5071733;28;20049;-84
2021/04/08 01:49:04;;;;;;;10.70;3.65;;;;;;;2.26;60.82;101073.09;5070247;28;20040;-83
2021/04/08 01:51:35;;;;;;;7.25;3.88;;;;;;;2.20;61.70;101070.50;5071434;28;20044;-82
2021/04/08 01:54:05;;;;;;;8.02;3.50;;;;;;;2.14;61.68;101078.34;5073457;28;20425;-82
2021/04/08 01:56:35;;;;;;;9.27;3.65;;;;;;;2.15;61.46;101076.59;5076374;28;20064;-83
2021/04/08 01:59:05;;;;;;;7.78;3.25;;;;;;;2.10;61.21;101087.06;5072472;28;20077;-83
2021/04/08 02:01:32;;;;;;;11.73;3.80;;;;;;;2.14;61.17;101091.41;5078636;28;20044;-83
2021/04/08 02:03:59;;;;;;;9.07;3.80;;;;;;;2.13;61.40;101089.66;5062203;28;20532;-83
2021/04/08 02:06:28;;;;;;;8.25;3.78;;;;;;;2.06;61.55;101086.19;5073545;28;20159;-83
2021/04/08 02:08:57;;;;;;;5.30;3.30;;;;;;;2.06;61.61;101091.41;5070692;28;21424;-82
2021/04/08 02:11:25;;;;;;;10.90;3.42;;;;;;;1.99;61.74;101094.91;5072017;28;20151;-82
2021/04/08 02:13:52;;;;;;;9.13;3.00;;;;;;;1.98;62.02;101092.31;5076480;28;20467;-82
2021/04/08 02:16:20;;;;;;;8.57;3.58;;;;;;;1.95;62.28;101095.78;5067519;28;20458;-82
2021/04/08 02:18:53;;;;;;;10.80;3.40;;;;;;;1.87;62.34;101101.91;5068724;28;20053;-83
2021/04/08 02:21:22;;;;;;;9.82;3.33;;;;;;;1.84;62.33;101089.72;5081021;28;20037;-83
2021/04/08 02:23:52;;;;;;;8.30;3.15;;;;;;;1.88;62.33;101095.81;5079677;28;20095;-83
2021/04/08 02:26:19;;;;;;;11.60;3.80;;;;;;;1.92;62.28;101094.91;5081956;28;20041;-83
2021/04/08 02:28:47;;;;;;;11.23;4.03;;;;;;;1.93;61.89;101094.03;5087270;28;20079;-82
2021/04/08 02:31:13;;;;;;;7.82;3.60;;;;;;;1.86;62.46;101101.03;5083492;28;20060;-83
2021/04/08 02:33:40;;;;;;;10.02;3.88;;;;;;;1.81;62.72;101105.38;5071986;28;20152;-82
2021/04/08 02:36:07;;;;;;;12.73;3.80;;;;;;;1.76;63.52;101109.72;5085754;28;20032;-82
2021/04/08 02:38:35;;;;;;;11.23;4.10;;;;;;;1.75;63.73;101111.44;5081728;28;20105;-82
2021/04/08 02:41:07;;;;;;;8.38;3.85;;;;;;;1.72;63.73;101106.25;5092270;28;20052;-82
2021/04/08 02:43:34;;;;;;;10.65;3.95;;;;;;;1.69;64.05;101111.47;5090730;28;20090;-83
2021/04/08 02:46:00;;;;;;;8.73;3.88;;;;;;;1.67;64.13;101109.72;5091924;28;20071;-82
2021/04/08 02:48:27;;;;;;;8.20;3.90;;;;;;;1.67;63.99;101114.94;5082545;28;20060;-83
2021/04/08 02:50:56;;;;;;;8.18;3.92;;;;;;;1.56;64.10;101096.66;5075514;28;20136;-83
2021/04/08 02:53:47;;;;;;;9.32;3.83;;;;;;;1.65;64.38;101116.69;5069571;28;20053;-84
2021/04/08 02:56:32;;;;;;;8.38;4.05;;;;;;;1.63;64.33;101116.66;5069513;28;20059;-83
2021/04/08 02:59:08;;;;;;;8.13;3.80;;;;;;;1.62;64.04;101114.94;5068457;28;20048;-82
2021/04/08 03:01:43;;;;;;;10.27;3.80;;;;;;;1.61;64.56;101112.31;5064457;28;20050;-82
2021/04/08 03:04:18;;;;;;;9.27;3.63;;;;;;;1.61;64.19;101121.00;5073099;28;20045;-82
2021/04/08 03:06:46;;;;;;;9.40;3.72;;;;;;;1.59;64.69;101120.13;5073660;28;20044;-84
2021/04/08 03:09:13;;;;;;;8.15;3.65;;;;;;;1.64;64.22;101135.81;5066894;28;20066;-82
2021/04/08 03:11:39;;;;;;;9.55;3.47;;;;;;;1.63;64.19;101129.72;5067595;28;20119;-82
2021/04/08 03:14:08;;;;;;;10.63;4.18;;;;;;;1.60;64.73;101132.31;5064602;28;20548;-82
2021/04/08 03:16:41;;;;;;;13.15;4.00;;;;;;;1.58;64.46;101123.63;5069061;28;20067;-82
2021/04/08 03:19:19;;;;;;;7.53;3.75;;;;;;;1.57;64.89;101132.34;5073349;28;20142;-83
2021/04/08 03:21:47;;;;;;;9.48;4.07;;;;;;;1.56;64.91;101141.03;5080283;28;20102;-83
2021/04/08 03:24:14;;;;;;;11.30;4.50;;;;;;;1.58;64.10;101134.06;5071588;28;20058;-81
2021/04/08 03:26:44;;;;;;;9.88;3.83;;;;;;;1.63;64.21;101145.38;5094818;28;20054;-82
2021/04/08 03:29:14;;;;;;;5.85;3.05;;;;;;;1.70;64.49;101149.75;5075964;28;20536;-81
2021/04/08 03:31:45;;;;;;;13.98;4.60;;;;;;;1.74;64.24;101148.88;5075986;28;20056;-82
2021/04/08 03:34:13;;;;;;;10.65;4.05;;;;;;;1.73;64.36;101147.13;5071455;28;20078;-83
2021/04/08 03:36:40;;;;;;;9.85;4.13;;;;;;;1.77;64.11;101148.88;5069714;28;20048;-82
2021/04/08 03:39:08;;;;;;;9.73;4.20;;;;;;;1.84;64.26;101156.72;5078027;28;20144;-82
2021/04/08 03:41:40;;;;;;;12.00;4.57;;;;;;;1.84;64.14;101155.00;5078828;28;20037;-83
2021/04/08 03:44:08;;;;;;;9.10;4.45;;;;;;;1.92;63.86;101165.44;5072588;28;20073;-83
2021/04/08 03:46:37;;;;;;;8.02;4.07;;;;;;;1.92;64.00;101161.06;5073220;28;20049;-83
2021/04/08 03:49:10;;;;;;;10.57;4.78;;;;;;;1.94;63.64;101161.94;5070113;28;20114;-82
2021/04/08 03:51:41;;;;;;;8.85;4.00;;;;;;;1.93;63.41;101157.59;5070341;28;20049;-83
2021/04/08 03:54:11;;;;;;;12.20;4.82;;;;;;;1.90;63.59;101160.19;5068330;28;20040;-83
2021/04/08 03:56:41;;;;;;;9.15;4.47;;;;;;;1.99;63.40;101164.56;5070583;28;20068;-83
2021/04/08 03:59:09;;;;;;;11.82;4.30;;;;;;;2.04;63.41;101178.53;5073607;28;20083;-84
2021/04/08 04:01:38;;;;;;;8.83;3.97;;;;;;;2.09;63.35;101168.91;5069528;28;20061;-84
2021/04/08 04:04:09;;;;;;;8.35;4.10;;;;;;;2.14;63.10;101166.31;5075035;28;20076;-83
2021/04/08 04:06:41;;;;;;;9.00;4.00;;;;;;;2.17;63.27;101169.81;5078468;28;20079;-83
2021/04/08 04:09:12;;;;;;;11.52;4.20;;;;;;;2.20;63.47;101180.25;5078009;28;20052;-83
2021/04/08 04:11:41;;;;;;;8.77;4.32;;;;;;;2.22;63.45;101177.63;5087924;28;20052;-82
2021/04/08 04:14:11;;;;;;;9.85;4.40;;;;;;;2.21;63.73;101181.97;5078429;28;20060;-82
2021/04/08 04:16:47;;;;;;;6.43;3.58;;;;;;;2.19;63.49;101180.25;5086004;28;20036;-83
2021/04/08 04:19:13;;;;;;;12.77;4.88;;;;;;;2.19;63.20;101186.34;5081014;28;20037;-83
2021/04/08 04:21:41;;;;;;;8.60;4.38;;;;;;;2.21;63.82;101192.41;5075333;28;20079;-82
2021/04/08 04:24:08;;;;;;;9.85;4.40;;;;;;;2.18;63.54;101189.84;5070339;28;20139;-82
2021/04/08 04:26:35;;;;;;;10.52;4.63;;;;;;;2.22;64.03;101188.94;5070377;28;20194;-83
2021/04/08 04:29:01;;;;;;;9.00;4.57;;;;;;;2.26;64.25;101190.69;5068450;28;20081;-83
2021/04/08 04:31:28;;;;;;;9.55;4.00;;;;;;;2.27;63.69;101192.44;5072007;28;20048;-83
2021/04/08 04:33:55;;;;;;;11.00;4.35;;;;;;;2.24;63.91;101197.66;5065776;28;20049;-82
2021/04/08 04:36:22;;;;;;;12.77;4.82;;;;;;;2.25;64.26;101199.41;5069802;28;20052;-84
2021/04/08 04:38:51;;;;;;;17.92;6.50;;;;;;;2.25;64.28;101204.63;5066016;28;20083;-81
2021/04/08 04:41:17;;;;;;;13.35;4.80;;;;;;;2.24;65.08;101197.66;5069831;28;20044;-84
2021/04/08 04:43:43;;;;;;;12.02;4.70;;;;;;;2.28;64.45;101207.25;5068164;28;20049;-83
2021/04/08 04:46:10;;;;;;;9.13;5.03;;;;;;;2.26;64.46;101201.13;5072770;28;20056;-84
2021/04/08 04:48:37;;;;;;;9.07;5.00;;;;;;;2.34;64.40;101203.75;5074574;28;20045;-83
2021/04/08 04:51:05;;;;;;;11.63;4.70;;;;;;;2.38;64.41;101206.34;5087536;28;20028;-82
2021/04/08 04:53:32;;;;;;;14.00;4.77;;;;;;;2.42;63.83;101213.34;5091705;28;20044;-84
2021/04/08 04:55:59;;;;;;;7.93;4.18;;;;;;;2.52;63.44;101210.72;5084443;28;20033;-83
2021/04/08 04:58:25;;;;;;;10.38;5.07;;;;;;;2.59;63.48;101215.94;5083472;28;20041;-83
2021/04/08 05:00:56;;;;;;;12.07;4.80;;;;;;;2.65;63.01;101215.06;5088103;28;20057;-84
2021/04/08 05:03:22;;;;;;;8.68;4.65;;;;;;;2.68;62.95;101218.50;5085117;28;20048;-83
2021/04/08 05:05:50;;;;;;;10.77;4.70;;;;;;;2.68;62.66;101220.25;5075826;28;20053;-83
2021/04/08 05:08:16;;;;;;;9.48;4.45;;;;;;;2.75;63.14;101222.88;5089344;28;20044;-83
2021/04/08 05:10:44;;;;;;;10.10;4.63;;;;;;;2.85;62.82;101223.72;5091429;28;20055;-83
2021/04/08 05:13:11;;;;;;;12.43;4.50;;;;;;;2.90;62.80;101221.09;5093360;28;20044;-84
2021/04/08 05:15:37;;;;;;;9.05;4.35;;;;;;;2.99;61.69;101221.94;5086730;28;20049;-83
2021/04/08 05:18:12;;;;;;;9.90;4.70;;;;;;;3.02;62.08;101235.00;5083782;28;20048;-83
2021/04/08 05:20:38;;;;;;;9.82;4.93;;;;;;;3.05;61.78;101228.91;5074584;28;20040;-83
2021/04/08 05:23:04;;;;;;;14.60;4.88;;;;;;;3.13;62.31;101241.09;5077532;28;20060;-83
2021/04/08 05:25:30;;;;;;;8.98;5.32;;;;;;;3.25;61.51;101244.56;5076474;28;20055;-82
2021/04/08 05:27:56;;;;;;;10.23;4.82;;;;;;;3.27;61.18;101237.56;5072706;28;20052;-82
2021/04/08 05:30:24;;;;;;;9.27;4.38;;;;;;;3.36;61.31;101245.38;5083967;28;20048;-83
2021/04/08 05:32:52;;;;;;;11.65;5.38;;;;;;;3.31;61.07;101240.16;5087205;28;20064;-83
2021/04/08 05:35:19;;;;;;;8.10;4.90;;;;;;;3.31;61.43;101250.63;5081513;28;20049;-82
2021/04/08 05:37:45;;;;;;;13.98;4.85;;;;;;;3.35;60.32;101252.34;5075104;28;20079;-83
2021/04/08 05:40:12;;;;;;;12.48;5.20;;;;;;;3.28;61.00;101255.88;5076754;28;20146;-82
2021/04/08 05:42:43;;;;;;;9.10;4.65;;;;;;;3.26;61.06;101256.75;5089804;28;20054;-83
2021/04/08 05:45:09;;;;;;;;;;;;;;;3.35;61.17;101261.94;5090964;28;20040;-82
2021/04/08 05:47:36;;;;;;;15.93;5.00;;;;;;;3.30;61.23;101254.13;5083534;28;19909;-82
2021/04/08 05:50:03;;;;;;;10.85;4.82;;;;;;;3.31;60.56;101253.22;5085031;28;20146;-82
2021/04/08 05:52:29;;;;;;;13.55;5.40;;;;;;;3.33;60.64;101254.09;5078722;28;20100;-83
2021/04/08 05:54:56;;;;;;;16.58;5.45;;;;;;;3.30;60.39;101255.88;5073097;28;20049;-82
2021/04/08 05:57:23;;;;;;;16.00;5.50;;;;;;;3.31;60.91;101260.22;5077455;28;20048;-81
2021/04/08 05:59:50;;;;;;;10.52;4.88;;;;;;;3.34;60.67;101266.31;5075457;28;20127;-81
2021/04/08 06:02:16;;;;;;;13.35;6.28;;;;;;;3.40;60.77;101268.06;5069168;28;20052;-80
2021/04/08 06:04:42;;;;;;;10.38;5.47;;;;;;;3.43;60.39;101263.69;5072955;28;20098;-82
2021/04/08 06:07:10;;;;;;;13.85;5.50;;;;;;;3.55;59.98;101274.97;5069668;28;20692;-83
2021/04/08 06:09:39;;;;;;;13.90;5.78;;;;;;;3.59;60.34;101274.97;5075020;28;20048;-83
2021/04/08 06:12:05;;;;;;;10.50;5.72;;;;;;;3.61;60.70;101275.84;5074617;28;20040;-84
2021/04/08 06:14:33;;;;;;;11.88;6.05;;;;;;;3.70;59.84;101282.75;5075505;28;20071;-84
2021/04/08 06:16:59;;;;;;;14.55;6.20;;;;;;;3.79;59.48;101278.34;5075731;28;20047;-81
2021/04/08 06:19:26;;;;;;;11.30;5.95;;;;;;;3.85;59.87;101280.94;5076542;28;20052;-84
2021/04/08 06:21:53;;;;;;;16.17;6.10;;;;;;;3.91;59.54;101280.03;5078561;28;20045;-84
2021/04/08 06:24:19;;;;;;;15.85;6.40;;;;;;;4.06;58.65;101293.06;5080220;28;20053;-83
2021/04/08 06:26:47;;;;;;;15.63;5.50;;;;;;;4.28;58.38;101304.25;5079455;28;20074;-88
2021/04/08 06:29:17;;;;;;;11.25;5.80;;;;;;;4.44;58.11;101287.53;5072985;28;20056;-82
2021/04/08 06:31:49;;;;;;;10.48;5.63;;;;;;;4.62;57.92;101288.25;5069175;28;20060;-83
2021/04/08 06:34:16;;;;;;;11.98;5.70;;;;;;;4.76;56.82;101289.88;5075480;28;20062;-82
2021/04/08 06:36:43;;;;;;;11.82;5.60;;;;;;;4.83;56.87;101290.72;5090926;28;20070;-83
2021/04/08 06:39:09;;;;;;;15.77;6.15;;;;;;;4.90;56.88;101295.88;5083869;28;20045;-82
2021/04/08 06:41:44;;;;;;;15.82;6.05;;;;;;;5.03;56.20;101298.41;5087840;28;20050;-82
2021/04/08 06:44:15;;;;;;;16.35;5.85;;;;;;;5.08;55.80;101300.06;5090746;28;20036;-81
2021/04/08 06:46:43;;;;;;;10.95;6.05;;;;;;;5.07;56.29;101294.84;5089908;28;20407;-80
2021/04/08 06:49:39;;;;;;;13.32;5.93;;;;;;;5.10;54.76;101302.69;5071497;28;20045;-81
2021/04/08 06:52:07;;;;;;;13.48;6.32;;;;;;;5.07;55.57;101300.97;5075262;28;20083;-81
2021/04/08 06:54:37;;;;;;;13.70;6.45;;;;;;;5.03;55.95;101311.53;5079566;28;20052;-83
2021/04/08 06:57:05;;;;;;;11.38;5.78;;;;;;;4.95;55.60;101308.97;5078004;28;20442;-83
2021/04/08 06:59:32;;;;;;;12.60;7.28;;;;;;;4.83;55.89;101314.31;5074771;28;20140;-83
2021/04/08 07:01:59;;;;;;;11.55;6.88;;;;;;;4.70;56.41;101321.44;5076203;28;22184;-83
2021/04/08 07:04:26;;;;;;;12.02;6.63;;;;;;;4.67;56.31;101320.59;5069950;28;20091;-82
2021/04/08 07:06:53;;;;;;;11.60;6.40;;;;;;;4.69;57.03;101305.72;5072552;28;20167;-82
2021/04/08 07:09:20;;;;;;;15.43;6.15;;;;;;;4.92;56.37;101316.84;5068781;28;20060;-81
2021/04/08 07:11:47;;;;;;;10.60;5.75;;;;;;;5.01;56.18;101318.53;5068500;28;20051;-82
2021/04/08 07:14:17;;;;;;;9.98;5.65;;;;;;;5.07;56.08;101321.97;5068159;28;20102;-82
2021/04/08 07:16:43;;;;;;;17.58;7.50;;;;;;;5.17;55.41;101323.63;5069434;28;20086;-82
2021/04/08 07:19:10;;;;;;;11.60;5.85;;;;;;;5.31;55.38;101322.63;5081519;28;20083;-82
2021/04/08 07:21:39;;;;;;;14.65;6.43;;;;;;;5.35;54.60;101321.69;5081403;28;20116;-82
2021/04/08 07:24:20;;;;;;;20.70;6.60;;;;;;;5.40;55.13;101327.75;5071932;28;20189;-83
2021/04/08 07:26:51;;;;;;;15.48;6.28;;;;;;;5.41;55.53;101327.75;5070322;28;20052;-82
2021/04/08 07:29:18;;;;;;;13.73;5.97;;;;;;;5.48;55.34;101328.56;5083355;28;20064;-82
2021/04/08 07:31:46;;;;;;;12.45;5.88;;;;;;;5.40;55.04;101331.25;5087948;28;20060;-81
2021/04/08 07:34:35;;;;;;;12.43;6.23;;;;;;;5.54;55.27;101333.72;5070352;28;20478;-82
2021/04/08 07:37:03;;;;;;;10.55;5.60;;;;;;;5.68;53.88;101333.56;5073359;28;20052;-81
2021/04/08 07:39:46;;;;;;;9.48;5.57;;;;;;;5.71;53.85;101326.50;5069360;28;20029;-82
2021/04/08 07:42:14;;;;;;;10.90;5.55;;;;;;;5.95;53.71;101339.41;5068816;28;20379;-83
2021/04/08 07:45:00;;;;;;;13.77;5.78;;;;;;;6.08;53.97;101336.59;5065244;28;20115;-82
2021/04/08 07:47:31;;;;;;;10.68;5.75;;;;;;;6.24;53.24;101339.00;5074268;28;20075;-83
2021/04/08 07:50:17;;;;;;;12.30;5.80;;;;;;;6.42;52.79;101337.84;5066650;28;20056;-83
2021/04/08 07:52:50;;;;;;;13.93;5.78;;;;;;;6.53;52.04;101338.56;5061831;28;20057;-82
2021/04/08 07:55:29;;;;;;;14.80;6.30;;;;;;;6.75;52.17;101346.13;5073304;28;20040;-82
2021/04/08 07:58:16;;;;;;;10.43;5.72;;;;;;;6.85;51.34;101347.69;5078871;28;20070;-81
2021/04/08 08:00:54;;;;;;;7.43;4.55;;;;;;;6.87;50.85;101341.53;5068632;28;20052;-82
2021/04/08 08:03:33;;;;;;;8.90;4.75;;;;;;;6.92;51.04;101352.84;5072159;28;20111;-82
2021/04/08 08:06:01;;;;;;;13.25;6.00;;;;;;;7.00;50.82;101357.97;5078718;28;20071;-81
2021/04/08 08:08:36;;;;;;;10.02;5.30;;;;;;;7.16;50.75;101350.69;5071266;28;20074;-83
2021/04/08 08:11:07;;;;;;;11.00;5.05;;;;;;;7.24;50.09;101357.53;5063723;28;20048;-82
2021/04/08 08:13:39;;;;;;;9.55;5.32;;;;;;;7.28;50.01;101353.09;5067593;28;20083;-81
2021/04/08 08:16:06;;;;;;;13.63;5.80;;;;;;;7.25;49.53;101361.03;5062478;28;20120;-82
2021/04/08 08:18:40;;;;;;;11.35;5.68;;;;;;;7.26;50.13;101365.41;5061039;28;20052;-82
2021/04/08 08:21:13;;;;;;;10.00;5.70;;;;;;;7.54;50.22;101364.03;5068810;28;20120;-81
2021/04/08 08:23:47;;;;;;;7.82;4.38;;;;;;;7.80;48.73;101362.63;5068582;28;20040;-82
2021/04/08 08:26:33;;;;;;;8.38;4.32;;;;;;;8.29;46.63;101362.47;5082523;28;20483;-82
2021/04/08 08:29:03;;;;;;;10.80;5.10;;;;;;;8.63;46.61;101366.13;5078861;28;20040;-82
2021/04/08 08:32:02;;;;;;;9.95;4.78;;;;;;;8.96;46.20;101366.22;5081737;28;20044;-81
2021/04/08 08:34:39;;;;;;;9.77;4.32;;;;;;;9.02;44.89;101358.97;5083925;28;20111;-81
2021/04/08 08:37:13;;;;;;;7.97;4.25;;;;;;;8.81;45.24;101359.53;5086510;28;20036;-82
2021/04/08 08:39:47;;;;;;;7.10;3.70;;;;;;;8.78;45.21;101363.13;5089023;28;20037;-81
2021/04/08 08:42:28;;;;;;;8.07;3.83;;;;;;;8.83;43.96;101364.75;5093409;28;20043;-83
2021/04/08 08:45:01;;;;;;;7.13;4.10;;;;;;;8.74;45.69;101360.56;5092521;28;20033;-83
2021/04/08 08:47:40;;;;;;;8.10;3.92;;;;;;;9.14;44.65;101355.16;5083818;28;20087;-84
2021/04/08 08:50:17;;;;;;;9.38;3.58;;;;;;;9.49;42.77;101357.75;5081501;28;20287;-83
2021/04/08 08:52:56;;;;;;;7.50;3.10;;;;;;;9.67;42.10;101363.44;5072697;28;20428;-82
2021/04/08 08:55:26;;;;;;;11.55;4.90;;;;;;;9.79;41.82;101360.44;5076839;28;20044;-83
2021/04/08 08:57:57;;;;;;;8.85;3.80;;;;;;;9.77;41.67;101354.31;5075399;28;20136;-81
2021/04/08 09:00:27;;;;;;;8.80;3.70;;;;;;;9.72;41.65;101350.97;5079910;28;20098;-80
2021/04/08 09:02:57;;;;;;;8.23;3.17;;;;;;;9.64;41.02;101366.16;5065272;28;20052;-82
2021/04/08 09:05:27;;;;;;;9.43;3.10;;;;;;;9.48;40.57;101358.66;5073867;28;20053;-80
2021/04/08 09:07:59;;;;;;;7.90;2.58;;;;;;;9.31;41.73;101362.66;5078784;28;20068;-79
2021/04/08 09:10:47;;;;;;;8.10;2.80;;;;;;;9.20;41.78;101373.50;5082891;28;20044;-80
2021/04/08 09:13:21;;;;;;;10.10;2.92;;;;;;;8.95;42.24;101359.19;5072964;28;20075;-79
2021/04/08 09:15:48;;;;;;;5.75;2.70;;;;;;;8.63;41.66;101352.06;5082000;28;20120;-80
2021/04/08 09:18:44;;;;;;;6.20;2.42;;;;;;;8.44;42.62;101363.03;5086004;28;20063;-80
2021/04/08 09:21:44;;;;;;;5.22;2.53;;;;;;;8.12;43.01;101364.63;5075042;28;20047;-80
2021/04/08 09:24:25;;;;;;;6.65;2.28;;;;;;;7.95;43.63;101378.16;5082762;28;20048;-82
2021/04/08 09:27:11;;;;;;;8.75;2.13;;;;;;;7.77;44.10;101371.47;5084278;28;20044;-82
2021/04/08 09:29:49;;;;;;;11.27;2.72;;;;;;;7.73;43.11;101369.78;5081514;28;20041;-81
2021/04/08 09:32:45;;;;;;;5.90;2.20;;;;;;;7.67;44.16;101367.28;5087608;28;20106;-83
2021/04/08 09:35:13;;;;;;;7.05;2.47;;;;;;;7.63;43.77;101362.97;5084495;28;20036;-83
2021/04/08 09:37:53;;;;;;;10.25;3.30;;;;;;;7.51;44.30;101368.50;5087715;28;20071;-80
2021/04/08 09:40:34;;;;;;;9.75;2.90;;;;;;;7.49;44.93;101365.88;5078665;28;20896;-79
2021/04/08 09:43:05;;;;;;;7.47;3.08;;;;;;;7.60;45.01;101365.66;5080189;28;20033;-84
2021/04/08 09:45:34;;;;;;;7.93;3.00;;;;;;;7.71;44.32;101366.34;5087444;28;20060;-83
2021/04/08 09:48:15;;;;;;;11.55;2.85;;;;;;;7.74;43.98;101361.84;5083755;28;20053;-84
2021/04/08 09:50:52;;;;;;;6.75;3.13;;;;;;;7.73;44.30;101348.69;5088903;28;20059;-83
2021/04/08 09:53:24;;;;;;;7.93;3.40;;;;;;;7.75;44.29;101360.09;5088319;28;20049;-83
2021/04/08 09:55:57;;;;;;;9.68;3.35;;;;;;;7.70;45.17;101356.69;5088612;28;20056;-84
2021/04/08 09:58:36;;;;;;;12.63;6.07;;;;;;;7.73;44.98;101351.34;5080319;28;20053;-83
2021/04/08 10:01:07;;;;;;;10.55;3.60;;;;;;;7.75;44.51;101360.97;5084176;28;20059;-83
2021/04/08 10:03:43;;;;;;;9.23;3.47;;;;;;;7.65;43.93;101358.53;5083090;28;20049;-84
2021/04/08 10:06:22;;;;;;;7.95;3.30;;;;;;;7.65;44.69;101351.50;5078495;28;20052;-84
2021/04/08 10:08:51;;;;;;;8.52;3.47;;;;;;;7.80;45.59;101357.38;5081297;28;20053;-82
2021/04/08 10:11:31;;;;;;;5.80;3.50;;;;;;;7.91;44.71;101348.31;5084392;28;20044;-86
2021/04/08 10:13:58;;;;;;;11.73;4.50;;;;;;;7.89;44.35;101343.97;5079615;28;20060;-84
2021/04/08 10:16:34;;;;;;;8.68;4.03;;;;;;;7.69;44.17;101354.97;5067783;28;20143;-86
2021/04/08 10:19:02;;;;;;;9.10;3.53;;;;;;;7.49;44.56;101352.69;5086849;28;20093;-85
2021/04/08 10:21:30;;;;;;;12.18;4.45;;;;;;;7.28;45.14;101347.81;5077290;28;20110;-85
2021/04/08 10:23:56;;;;;;;8.63;4.07;;;;;;;7.35;46.14;101338.91;5083012;28;20208;-86
2021/04/08 10:26:25;;;;;;;10.48;4.10;;;;;;;7.41;45.85;101336.16;5084656;28;20079;-85
2021/04/08 10:28:54;;;;;;;11.07;3.85;;;;;;;7.48;46.34;101329.00;5078587;28;20059;-86
2021/04/08 10:31:31;;;;;;;8.32;4.22;;;;;;;7.55;44.32;101333.28;5084656;28;20100;-84
2021/04/08 10:34:19;;;;;;;11.63;4.05;;;;;;;7.28;44.41;101326.75;5087148;28;20040;-83
2021/04/08 10:36:55;;;;;;;11.73;3.67;;;;;;;7.12;45.52;101335.81;5090026;28;20048;-84
2021/04/08 10:39:27;;;;;;;6.53;3.47;;;;;;;7.12;46.06;101334.06;5092977;28;20070;-83
2021/04/08 10:42:02;;;;;;;7.30;3.40;;;;;;;7.14;44.40;101328.75;5088235;28;20028;-84
2021/04/08 10:44:35;;;;;;;8.82;3.75;;;;;;;7.11;44.67;101327.03;5087395;28;20612;-83
2021/04/08 10:47:14;;;;;;;7.68;3.38;;;;;;;7.12;44.98;101327.91;5079536;28;20064;-83
2021/04/08 10:49:51;;;;;;;5.60;3.08;;;;;;;7.20;44.37;101326.91;5084827;28;20041;-83
2021/04/08 10:52:20;;;;;;;6.20;3.05;;;;;;;7.27;43.58;101325.00;5086196;28;20068;-85
2021/04/08 10:54:55;;;;;;;10.77;3.35;;;;;;;7.44;44.03;101333.47;5089544;28;20538;-83
2021/04/08 10:57:24;;;;;;;6.22;3.00;;;;;;;7.66;42.75;101331.28;5092457;28;20044;-83
2021/04/08 10:59:50;;;;;;;7.82;2.80;;;;;;;7.62;39.74;101319.06;5092880;28;20075;-82
2021/04/08 11:02:29;;;;;;;6.88;2.88;;;;;;;7.84;40.63;101308.94;5090385;28;20052;-83
2021/04/08 11:05:05;;;;;;;7.65;2.63;;;;;;;8.25;37.52;101313.31;5093599;28;20152;-84
2021/04/08 11:07:37;;;;;;;7.68;2.10;;;;;;;8.56;36.47;101310.84;5080656;28;20151;-84
2021/04/08 11:10:11;;;;;;;7.28;1.92;;;;;;;8.78;35.63;101312.06;5088850;28;20071;-82
2021/04/08 11:12:40;;;;;;;5.82;2.20;;;;;;;8.82;34.87;101308.41;5087207;28;20044;-84
2021/04/08 11:15:09;;;;;;;6.90;2.28;;;;;;;8.93;35.46;101308.16;5087377;28;20053;-84
2021/04/08 11:17:42;;;;;;;4.88;1.90;;;;;;;9.02;34.42;101311.44;5076048;28;20075;-85
2021/04/08 11:20:14;;;;;;;5.75;2.00;;;;;;;9.14;34.41;101310.22;5063741;28;20048;-84
2021/04/08 11:22:46;;;;;;;6.03;2.08;;;;;;;9.25;34.23;101305.56;5071962;28;20083;-87
2021/04/08 11:25:14;;;;;;;5.15;2.05;;;;;;;9.27;34.46;101313.44;5069679;28;20541;-83
2021/04/08 11:27:45;;;;;;;5.88;2.22;;;;;;;9.28;34.70;101308.13;5077518;28;20964;-82
2021/04/08 11:30:26;;;;;;;7.82;2.72;;;;;;;9.30;34.28;101308.91;5071096;28;20047;-84
2021/04/08 11:32:56;;;;;;;5.15;2.72;;;;;;;9.31;35.34;101309.78;5072182;28;20147;-83
2021/04/08 11:35:34;;;;;;;4.82;3.10;;;;;;;9.37;35.09;101312.28;5068833;28;20040;-82
2021/04/08 11:38:14;;;;;;;9.77;3.10;;;;;;;9.40;35.38;101296.34;5081917;28;20175;-80
2021/04/08 11:41:09;;;;;;;7.32;2.90;;;;;;;9.53;34.77;101299.50;5074676;28;20064;-82
2021/04/08 11:43:50;;;;;;;5.10;3.00;;;;;;;9.61;34.84;101300.13;5073102;28;20056;-82
2021/04/08 11:46:37;;;;;;;6.35;2.80;;;;;;;9.73;34.98;101295.38;5070282;28;20079;-82
2021/04/08 11:49:18;;;;;;;9.40;3.40;;;;;;;9.81;35.04;101289.84;5076734;28;20066;-83